Time,TemperatureF,DewpointF,PressureIn,WindDirection,WindDirectionDegrees,WindSpeedMPH,WindSpeedGustMPH,Humidity,HourlyPrecipIn,Conditions,Clouds,dailyrainin,SoftwareType,DateUTC
2013-04-06 00:21:00,38.3,21.0,30.03,NW,316,4.0,-999.0,51,-99.99,,,0.00,weatherlink.com 1.10,2013-04-06 04:21:00,
2013-04-06 00:52:00,37.3,22.0,30.05,WSW,244,4.0,-999.0,54,-99.99,,,0.00,weatherlink.com 1.10,2013-04-06 04:52:00,
2013-04-06 01:07:00,37.1,22.0,30.06,NNW,333,2.0,-999.0,55,-99.99,,,0.00,weatherlink.com 1.10,2013-04-06 05:07:00,
2013-04-06 01:22:00,36.8,22.0,30.07,NW,304,10.0,-999.0,56,-99.99,,,0.00,weatherlink.com 1.10,2013-04-06 05:22:00,
2013-04-06 01:37:00,36.6,22.0,30.07,NW,325,0.0,-999.0,56,-99.99,,,0.00,weatherlink.com 1.10,2013-04-06 05:37:00,
2013-04-06 01:53:00,36.2,22.0,30.07,NW,306,12.0,-999.0,56,-99.99,,,0.00,weatherlink.com 1.10,2013-04-06 05:53:00,
2013-04-06 02:08:00,35.9,22.0,30.08,North,355,4.0,-999.0,57,-99.99,,,0.00,weatherlink.com 1.10,2013-04-06 06:08:00,
2013-04-06 02:24:00,35.5,21.0,30.08,WNW,284,3.0,-999.0,57,-99.99,,,0.00,weatherlink.com 1.10,2013-04-06 06:24:00,
2013-04-06 02:40:00,35.1,21.0,30.09,NNE,19,4.0,-999.0,58,-99.99,,,0.00,weatherlink.com 1.10,2013-04-06 06:40:00,
2013-04-06 02:56:00,34.6,21.0,30.09,NW,322,6.0,-999.0,58,-99.99,,,0.00,weatherlink.com 1.10,2013-04-06 06:56:00,
2013-04-06 03:10:00,34.5,21.0,30.10,WSW,254,12.0,-999.0,58,-99.99,,,0.00,weatherlink.com 1.10,2013-04-06 07:10:00,
2013-04-06 03:25:00,34.2,21.0,30.10,NW,315,10.0,-999.0,58,-99.99,,,0.00,weatherlink.com 1.10,2013-04-06 07:25:00,
2013-04-06 03:40:00,33.9,20.0,30.11,WNW,298,4.0,-999.0,58,-99.99,,,0.00,weatherlink.com 1.10,2013-04-06 07:40:00,
2013-04-06 03:55:00,33.4,20.0,30.11,NW,325,6.0,-999.0,58,-99.99,,,0.00,weatherlink.com 1.10,2013-04-06 07:55:00,
2013-04-06 04:10:00,33.2,18.0,30.12,WNW,288,4.0,-999.0,55,-99.99,,,0.00,weatherlink.com 1.10,2013-04-06 08:10:00,
2013-04-06 04:26:00,33.1,13.0,30.12,West,277,2.0,-999.0,44,-99.99,,,0.00,weatherlink.com 1.10,2013-04-06 08:26:00,
2013-04-06 04:41:00,32.8,12.0,30.14,SW,219,3.0,-999.0,43,-99.99,,,0.00,weatherlink.com 1.10,2013-04-06 08:41:00,
2013-04-06 04:56:00,32.5,13.0,30.14,WNW,292,4.0,-999.0,44,-99.99,,,0.00,weatherlink.com 1.10,2013-04-06 08:56:00,
2013-04-06 05:12:00,32.2,12.0,30.15,West,261,4.0,-999.0,44,-99.99,,,0.00,weatherlink.com 1.10,2013-04-06 09:12:00,
2013-04-06 05:27:00,31.9,14.0,30.16,NNE,13,2.0,-999.0,47,-99.99,,,0.00,weatherlink.com 1.10,2013-04-06 09:27:00,
2013-04-06 05:42:00,31.7,14.0,30.17,West,269,8.0,-999.0,48,-99.99,,,0.00,weatherlink.com 1.10,2013-04-06 09:42:00,
2013-04-06 05:57:00,31.4,15.0,30.17,NW,312,3.0,-999.0,50,-99.99,,,0.00,weatherlink.com 1.10,2013-04-06 09:57:00,
2013-04-06 06:13:00,31.1,16.0,30.18,WNW,298,3.0,-999.0,53,-99.99,,,0.00,weatherlink.com 1.10,2013-04-06 10:13:00,
2013-04-06 06:29:00,30.8,16.0,30.20,NNE,19,4.0,-999.0,54,-99.99,,,0.00,weatherlink.com 1.10,2013-04-06 10:29:00,
2013-04-06 06:43:00,30.7,17.0,30.21,NW,306,0.0,-999.0,56,-99.99,,,0.00,weatherlink.com 1.10,2013-04-06 10:43:00,
2013-04-06 07:00:00,30.5,17.0,30.21,North,355,2.0,-999.0,58,-99.99,,,0.00,weatherlink.com 1.10,2013-04-06 11:00:00,
2013-04-06 07:15:00,30.8,17.0,30.21,West,278,2.0,-999.0,58,-99.99,,,0.00,weatherlink.com 1.10,2013-04-06 11:15:00,
2013-04-06 07:30:00,31.1,18.0,30.23,West,273,2.0,-999.0,58,-99.99,,,0.00,weatherlink.com 1.10,2013-04-06 11:30:00,
2013-04-06 07:45:00,31.5,18.0,30.24,NNE,27,2.0,-999.0,58,-99.99,,,0.00,weatherlink.com 1.10,2013-04-06 11:45:00,
2013-04-06 08:00:00,32.1,18.0,30.25,West,271,1.0,-999.0,57,-99.99,,,0.00,weatherlink.com 1.10,2013-04-06 12:00:00,
2013-04-06 08:19:00,32.8,18.0,30.26,NE,47,2.0,-999.0,54,-99.99,,,0.00,weatherlink.com 1.10,2013-04-06 12:19:00,
2013-04-06 08:30:00,33.1,17.0,30.27,WNW,282,3.0,-999.0,53,-99.99,,,0.00,weatherlink.com 1.10,2013-04-06 12:30:00,
2013-04-06 08:45:00,33.4,17.0,30.28,WNW,288,1.0,-999.0,51,-99.99,,,0.00,weatherlink.com 1.10,2013-04-06 12:45:00,
2013-04-06 09:01:00,34.1,17.0,30.28,WNW,282,6.0,-999.0,49,-99.99,,,0.00,weatherlink.com 1.10,2013-04-06 13:01:00,
2013-04-06 09:16:00,34.4,16.0,30.28,West,274,5.0,-999.0,47,-99.99,,,0.00,weatherlink.com 1.10,2013-04-06 13:16:00,
2013-04-06 09:31:00,35.4,16.0,30.29,NE,51,1.0,-999.0,45,-99.99,,,0.00,weatherlink.com 1.10,2013-04-06 13:31:00,
2013-04-06 09:47:00,36.2,16.0,30.29,West,265,5.0,-999.0,44,-99.99,,,0.00,weatherlink.com 1.10,2013-04-06 13:47:00,
2013-04-06 10:02:00,36.3,16.0,30.29,NW,305,7.0,-999.0,44,-99.99,,,0.00,weatherlink.com 1.10,2013-04-06 14:02:00,
2013-04-06 10:17:00,37.2,16.0,30.30,WNW,288,6.0,-999.0,42,-99.99,,,0.00,weatherlink.com 1.10,2013-04-06 14:17:00,
2013-04-06 10:32:00,36.6,15.0,30.30,NW,317,5.0,-999.0,41,-99.99,,,0.00,weatherlink.com 1.10,2013-04-06 14:32:00,
2013-04-06 10:48:00,37.3,14.0,30.31,NNE,26,4.0,-999.0,39,-99.99,,,0.00,weatherlink.com 1.10,2013-04-06 14:48:00,
2013-04-06 11:03:00,37.8,15.0,30.31,WNW,296,4.0,-999.0,40,-99.99,,,0.00,weatherlink.com 1.10,2013-04-06 15:03:00,
2013-04-06 11:19:00,38.7,15.0,30.31,NW,314,2.0,-999.0,38,-99.99,,,0.00,weatherlink.com 1.10,2013-04-06 15:19:00,
2013-04-06 11:33:00,39.0,14.0,30.31,WSW,244,5.0,-999.0,36,-99.99,,,0.00,weatherlink.com 1.10,2013-04-06 15:33:00,
2013-04-06 11:50:00,40.0,14.0,30.30,WNW,284,4.0,-999.0,35,-99.99,,,0.00,weatherlink.com 1.10,2013-04-06 15:50:00,
2013-04-06 12:05:00,40.1,13.0,30.31,WNW,283,7.0,-999.0,33,-99.99,,,0.00,weatherlink.com 1.10,2013-04-06 16:05:00,
2013-04-06 12:20:00,40.4,13.0,30.30,NE,51,4.0,-999.0,32,-99.99,,,0.00,weatherlink.com 1.10,2013-04-06 16:20:00,
2013-04-06 12:50:00,43.0,13.0,30.30,West,273,6.0,-999.0,29,-99.99,,,0.00,weatherlink.com 1.10,2013-04-06 16:50:00,
2013-04-06 13:05:00,43.3,14.0,30.29,West,277,3.0,-999.0,30,-99.99,,,0.00,weatherlink.com 1.10,2013-04-06 17:05:00,
2013-04-06 13:20:00,42.6,12.0,30.29,WNW,296,10.0,-999.0,29,-99.99,,,0.00,weatherlink.com 1.10,2013-04-06 17:20:00,
2013-04-06 13:36:00,43.3,13.0,30.29,ENE,75,3.0,-999.0,29,-99.99,,,0.00,weatherlink.com 1.10,2013-04-06 17:36:00,
2013-04-06 13:51:00,44.8,14.0,30.28,NE,50,4.0,-999.0,29,-99.99,,,0.00,weatherlink.com 1.10,2013-04-06 17:51:00,
2013-04-06 14:06:00,45.0,13.0,30.28,NW,308,4.0,-999.0,27,-99.99,,,0.00,weatherlink.com 1.10,2013-04-06 18:06:00,
2013-04-06 14:37:00,46.3,13.0,30.28,WSW,254,3.0,-999.0,26,-99.99,,,0.00,weatherlink.com 1.10,2013-04-06 18:37:00,
2013-04-06 14:52:00,47.2,13.0,30.28,ENE,64,0.0,-999.0,25,-99.99,,,0.00,weatherlink.com 1.10,2013-04-06 18:52:00,
2013-04-06 15:07:00,47.4,15.0,30.27,WNW,296,4.0,-999.0,27,-99.99,,,0.00,weatherlink.com 1.10,2013-04-06 19:07:00,
2013-04-06 15:22:00,48.1,16.0,30.27,West,269,2.0,-999.0,28,-99.99,,,0.00,weatherlink.com 1.10,2013-04-06 19:22:00,
2013-04-06 15:38:00,48.9,15.0,30.27,WNW,284,7.0,-999.0,26,-99.99,,,0.00,weatherlink.com 1.10,2013-04-06 19:38:00,
2013-04-06 15:54:00,49.0,15.0,30.26,NE,40,2.0,-999.0,26,-99.99,,,0.00,weatherlink.com 1.10,2013-04-06 19:54:00,
2013-04-06 16:08:00,49.4,13.0,30.26,East,89,3.0,-999.0,23,-99.99,,,0.00,weatherlink.com 1.10,2013-04-06 20:08:00,
2013-04-06 16:40:00,50.0,15.0,30.27,NNW,348,0.0,-999.0,25,-99.99,,,0.00,weatherlink.com 1.10,2013-04-06 20:40:00,
2013-04-06 16:55:00,50.7,15.0,30.27,WSW,245,3.0,-999.0,24,-99.99,,,0.00,weatherlink.com 1.10,2013-04-06 20:55:00,
2013-04-06 17:10:00,50.7,14.0,30.27,South,184,3.0,-999.0,23,-99.99,,,0.00,weatherlink.com 1.10,2013-04-06 21:10:00,
2013-04-06 17:25:00,51.4,16.0,30.27,South,182,2.0,-999.0,24,-99.99,,,0.00,weatherlink.com 1.10,2013-04-06 21:25:00,
2013-04-06 17:40:00,50.5,15.0,30.28,NW,316,2.0,-999.0,24,-99.99,,,0.00,weatherlink.com 1.10,2013-04-06 21:40:00,
2013-04-06 17:56:00,50.5,16.0,30.28,NW,315,5.0,-999.0,25,-99.99,,,0.00,weatherlink.com 1.10,2013-04-06 21:56:00,
2013-04-06 18:10:00,50.6,16.0,30.28,SSW,212,1.0,-999.0,25,-99.99,,,0.00,weatherlink.com 1.10,2013-04-06 22:10:00,
2013-04-06 18:41:00,49.5,16.0,30.28,WNW,298,1.0,-999.0,26,-99.99,,,0.00,weatherlink.com 1.10,2013-04-06 22:41:00,
2013-04-06 18:56:00,49.1,16.0,30.28,NW,316,0.0,-999.0,27,-99.99,,,0.00,weatherlink.com 1.10,2013-04-06 22:56:00,
2013-04-06 19:27:00,46.9,17.0,30.28,West,277,0.0,-999.0,30,-99.99,,,0.00,weatherlink.com 1.10,2013-04-06 23:27:00,
2013-04-06 19:42:00,45.8,17.0,30.29,West,277,0.0,-999.0,32,-99.99,,,0.00,weatherlink.com 1.10,2013-04-06 23:42:00,
2013-04-06 19:57:00,44.8,16.0,30.29,West,277,0.0,-999.0,32,-99.99,,,0.00,weatherlink.com 1.10,2013-04-06 23:57:00,
2013-04-06 20:12:00,44.0,17.0,30.29,West,277,0.0,-999.0,34,-99.99,,,0.00,weatherlink.com 1.10,2013-04-07 00:12:00,
2013-04-06 20:43:00,43.7,18.0,30.29,West,277,0.0,-999.0,35,-99.99,,,0.00,weatherlink.com 1.10,2013-04-07 00:43:00,
2013-04-06 20:58:00,43.4,17.0,30.30,West,277,0.0,-999.0,35,-99.99,,,0.00,weatherlink.com 1.10,2013-04-07 00:58:00,
2013-04-06 21:13:00,43.4,18.0,30.30,West,278,0.0,-999.0,36,-99.99,,,0.00,weatherlink.com 1.10,2013-04-07 01:13:00,
2013-04-06 21:30:00,43.1,18.0,30.30,SW,229,0.0,-999.0,36,-99.99,,,0.00,weatherlink.com 1.10,2013-04-07 01:30:00,
2013-04-06 21:45:00,42.6,18.0,30.30,SW,229,0.0,-999.0,37,-99.99,,,0.00,weatherlink.com 1.10,2013-04-07 01:45:00,
2013-04-06 22:00:00,42.3,18.0,30.30,SW,229,0.0,-999.0,37,-99.99,,,0.00,weatherlink.com 1.10,2013-04-07 02:00:00,
2013-04-06 22:15:00,41.9,17.0,30.30,SSE,163,1.0,-999.0,37,-99.99,,,0.00,weatherlink.com 1.10,2013-04-07 02:15:00,
2013-04-06 22:30:00,41.4,18.0,30.30,SE,128,2.0,-999.0,39,-99.99,,,0.00,weatherlink.com 1.10,2013-04-07 02:30:00,
2013-04-06 22:45:00,41.2,19.0,30.30,ESE,111,4.0,-999.0,41,-99.99,,,0.00,weatherlink.com 1.10,2013-04-07 02:45:00,
2013-04-06 23:00:00,40.6,21.0,30.30,East,96,1.0,-999.0,45,-99.99,,,0.00,weatherlink.com 1.10,2013-04-07 03:00:00,
2013-04-06 23:16:00,39.9,22.0,30.30,East,95,2.0,-999.0,49,-99.99,,,0.00,weatherlink.com 1.10,2013-04-07 03:16:00,
2013-04-06 23:32:00,39.3,24.0,30.30,ESE,115,2.0,-999.0,54,-99.99,,,0.00,weatherlink.com 1.10,2013-04-07 03:32:00,
2013-04-06 23:46:00,38.9,25.0,30.30,ESE,115,1.0,-999.0,57,-99.99,,,0.00,weatherlink.com 1.10,2013-04-07 03:46:00,